Time;durP1;ratioP1;P1;durP2;ratioP2;P2;SDS_P1;SDS_P2;PMS_P1;PMS_P2;Temp;Humidity;BMP_temperature;BMP_pressure;BME280_temperature;BME280_humidity;BME280_pressure;Samples;Min_cycle;Max_cycle;Signal;HPM_P1;HPM_P2
2023/03/16 00:00:26;;;;;;;;;7.33;7.00;;;;;3.83;64.53;99491.44;6287536;20;3449292;-44
2023/03/16 00:02:54;;;;;;;;;13.00;11.00;;;;;3.85;64.99;99488.75;6316759;20;2790960;-44
2023/03/16 00:05:24;;;;;;;;;11.50;8.00;;;;;3.85;65.67;99494.06;6284124;20;2761875;-46
2023/03/16 00:07:53;;;;;;;;;9.75;7.50;;;;;3.87;64.62;99503.72;6304224;20;1816012;-44
2023/03/16 00:10:26;;;;;;;;;19.00;13.80;;;;;3.77;66.10;99498.78;6338871;20;2802382;-45
2023/03/16 00:12:57;;;;;;;;;13.80;12.00;;;;;3.84;65.88;99509.09;6309499;20;2800330;-45
2023/03/16 00:15:26;;;;;;;;;12.00;10.60;;;;;3.80;65.87;99511.94;6310788;20;2781557;-47
2023/03/16 00:17:56;;;;;;;;;13.20;11.40;;;;;3.80;65.76;99506.63;6307807;20;2794100;-47
2023/03/16 00:20:24;;;;;;;;;13.50;10.50;;;;;3.67;66.23;99517.69;6284526;20;2784828;-44
2023/03/16 00:22:55;;;;;;;;;14.50;13.25;;;;;3.67;66.19;99523.00;6323323;20;2497299;-44
2023/03/16 00:25:23;;;;;;;;;13.50;13.00;;;;;3.63;67.38;99525.81;6315086;20;2794020;-46
2023/03/16 00:27:51;;;;;;;;;14.00;12.00;;;;;3.66;66.80;99525.72;6284314;20;2792346;-44
2023/03/16 00:30:21;;;;;;;;;12.00;10.60;;;;;3.63;66.76;99523.16;6310395;20;2788852;-48
2023/03/16 00:32:52;;;;;;;;;18.00;15.00;;;;;3.49;67.70;99526.31;6284172;20;3565926;-46
2023/03/16 00:35:20;;;;;;;;;18.00;12.00;;;;;3.63;67.36;99524.03;6313123;20;2800317;-47
2023/03/16 00:37:48;;;;;;;;;12.00;11.00;;;;;3.48;68.46;99528.13;6282968;20;2787828;-44
2023/03/16 00:40:18;;;;;;;;;15.00;11.60;;;;;3.59;67.91;99525.06;6305886;20;2794037;-44
2023/03/16 00:42:48;;;;;;;;;19.60;14.00;;;;;3.41;68.83;99523.06;6310113;20;2823215;-46
2023/03/16 00:45:17;;;;;;;;;13.60;12.20;;;;;3.42;68.46;99523.03;6305515;20;2789927;-45
2023/03/16 00:47:45;;;;;;;;;16.00;10.50;;;;;3.37;68.94;99526.75;6282948;20;2790881;-46
2023/03/16 00:50:13;;;;;;;;;12.50;10.50;;;;;3.33;68.68;99533.09;6281194;20;2788829;-44
2023/03/16 00:52:41;;;;;;;;;13.00;11.00;;;;;3.32;69.03;99528.69;6284278;20;2789889;-44
2023/03/16 00:55:11;;;;;;;;;14.80;12.20;;;;;3.30;68.61;99529.63;6307812;20;2811888;-44
2023/03/16 00:57:40;;;;;;;;;15.00;13.00;;;;;3.05;68.58;99529.59;6282733;20;2805475;-44
2023/03/16 01:00:11;;;;;;;;;10.00;10.00;;;;;3.17;69.57;99533.59;6283167;20;2764296;-45
2023/03/16 01:02:44;;;;;;;;;16.00;14.40;;;;;3.07;69.22;99533.03;6307200;20;2823233;-43
2023/03/16 01:05:14;;;;;;;;;10.00;10.00;;;;;3.13;69.00;99529.31;6284394;20;2787001;-44
2023/03/16 01:07:43;;;;;;;;;12.50;11.50;;;;;2.99;69.82;99536.88;6284128;20;2794071;-44
2023/03/16 01:10:16;;;;;;;;;12.29;12.29;;;;;2.82;69.93;99538.31;6320509;20;1817323;-46
2023/03/16 01:12:44;;;;;;;;;11.50;11.50;;;;;2.92;70.72;99543.28;6315251;20;2788940;-46
2023/03/16 01:15:15;;;;;;;;;10.43;10.43;;;;;2.90;70.15;99539.81;6324181;20;1816955;-45
2023/03/16 01:17:43;;;;;;;;;13.00;12.00;;;;;2.91;70.70;99538.91;6313517;20;2810870;-51
2023/03/16 01:20:11;;;;;;;;;14.00;12.00;;;;;2.89;70.45;99544.25;6279776;20;2781583;-44
2023/03/16 01:22:39;;;;;;;;;17.00;10.50;;;;;2.64;71.23;99546.84;6277623;20;2799410;-44
2023/03/16 01:25:10;;;;;;;;;13.00;10.50;;;;;2.69;70.09;99547.56;6280865;20;2778579;-44
2023/03/16 01:27:37;;;;;;;;;16.50;11.50;;;;;2.74;70.71;99544.75;6286134;20;2793020;-44
2023/03/16 01:30:06;;;;;;;;;15.50;11.00;;;;;2.74;70.12;99542.09;6281372;20;2801408;-45
2023/03/16 01:32:34;;;;;;;;;11.00;10.00;;;;;2.63;71.00;99545.09;6275818;20;2777448;-47
2023/03/16 01:35:06;;;;;;;;;8.17;8.17;;;;;2.48;72.14;99553.53;6320920;20;1812833;-50
2023/03/16 01:37:35;;;;;;;;;11.25;11.25;;;;;2.53;71.64;99543.66;6303049;20;1810720;-44
2023/03/16 01:40:07;;;;;;;;;12.60;9.20;;;;;2.45;70.79;99548.31;6338947;20;2767988;-45
2023/03/16 01:42:47;;;;;;;;;9.00;9.00;;;;;2.49;70.56;99544.66;6281577;20;2752376;-44
2023/03/16 01:46:03;;;;;;;;;10.00;10.00;;;;;2.46;71.17;99552.72;6304722;20;2794188;-44
2023/03/16 01:49:13;;;;;;;;;11.00;11.00;;;;;2.54;71.02;99546.25;6295977;20;1820204;-44
2023/03/16 01:52:02;;;;;;;;;11.50;11.00;;;;;2.17;72.19;99549.16;6309538;20;2792052;-45
2023/03/16 01:54:37;;;;;;;;;11.00;10.00;;;;;2.27;71.73;99558.56;6279802;20;2777330;-45
2023/03/16 01:57:21;;;;;;;;;12.50;10.00;;;;;2.17;72.50;99554.44;6280329;20;2791910;-46
2023/03/16 02:00:13;;;;;;;;;13.00;10.50;;;;;2.21;72.38;99556.09;6278288;20;2796134;-44
2023/03/16 02:02:47;;;;;;;;;12.00;12.00;;;;;2.28;72.29;99557.63;6279697;20;2784870;-45
2023/03/16 02:05:41;;;;;;;;;14.00;11.00;;;;;2.19;72.65;99557.94;6280797;20;2784622;-45
2023/03/16 02:08:11;;;;;;;;;13.00;10.50;;;;;2.19;74.06;99558.78;6281433;20;2788866;-44
2023/03/16 02:10:40;;;;;;;;;12.00;10.75;;;;;1.97;75.62;99555.91;6296273;20;1822338;-45
2023/03/16 02:13:08;;;;;;;;;13.00;9.50;;;;;2.03;73.58;99567.22;6311311;20;2779536;-45
2023/03/16 02:15:37;;;;;;;;;15.00;9.50;;;;;2.01;74.53;99563.75;6298025;20;1826492;-46
2023/03/16 02:18:07;;;;;;;;;6.25;6.25;;;;;2.08;73.44;99562.66;6330785;20;1819058;-44
2023/03/16 02:21:05;;;;;;;;;13.80;10.80;;;;;1.97;73.04;99561.22;6333490;20;2790004;-45
2023/03/16 02:23:33;;;;;;;;;15.00;10.00;;;;;1.97;73.57;99569.16;6277963;20;2787814;-45
2023/03/16 02:26:21;;;;;;;;;12.00;10.00;;;;;1.95;73.07;99567.47;6298985;20;1823274;-45
2023/03/16 02:29:28;;;;;;;;;13.50;11.00;;;;;1.94;73.15;99574.50;6311762;20;2789023;-43
2023/03/16 02:31:58;;;;;;;;;13.00;10.00;;;;;1.93;72.56;99575.44;6282590;20;2781556;-44
2023/03/16 02:34:27;;;;;;;;;3.00;1.00;;;;;1.97;72.92;99576.19;6280145;20;3454550;-44
2023/03/16 02:36:58;;;;;;;;;16.50;10.00;;;;;1.98;73.38;99581.47;6325105;20;1818747;-46
2023/03/16 02:39:26;;;;;;;;;13.50;10.25;;;;;2.00;72.61;99584.06;6326922;20;1819283;-44
2023/03/16 02:41:54;;;;;;;;;10.50;9.00;;;;;1.92;73.44;99580.75;6312703;20;2767002;-44
2023/03/16 02:44:34;;;;;;;;;7.00;7.00;;;;;1.88;73.62;99598.50;6277029;20;2748312;-45
2023/03/16 02:47:28;;;;;;;;;8.00;8.00;;;;;1.90;74.42;99594.06;6316016;20;2739874;-44
2023/03/16 02:49:58;;;;;;;;;6.20;5.80;;;;;1.85;73.47;99595.97;6334182;20;2740356;-43
2023/03/16 02:52:26;;;;;;;;;12.00;10.00;;;;;1.87;74.22;99601.19;6310877;20;2778797;-43
2023/03/16 02:54:55;;;;;;;;;12.75;7.00;;;;;1.81;73.48;99604.88;6291710;20;1829524;-45
2023/03/16 02:57:23;;;;;;;;;13.75;11.75;;;;;1.87;73.43;99609.13;6325381;20;1817673;-44
2023/03/16 02:59:51;;;;;;;;;13.00;13.00;;;;;1.88;73.78;99611.75;6310689;20;2811761;-45
2023/03/16 03:02:21;;;;;;;;;14.40;14.40;;;;;1.88;72.92;99619.69;6301333;20;2805632;-44
2023/03/16 03:04:53;;;;;;;;;15.00;15.00;;;;;1.84;72.12;99615.38;6280848;20;3539838;-45
2023/03/16 03:07:31;;;;;;;;;18.50;15.00;;;;;1.86;72.19;99618.00;6309830;20;2845125;-46
2023/03/16 03:10:03;;;;;;;;;15.00;15.00;;;;;1.89;73.47;99618.78;6273610;20;3541921;-44
2023/03/16 03:12:34;;;;;;;;;18.00;15.00;;;;;1.91;73.22;99622.25;6308276;20;2811756;-44
2023/03/16 03:15:07;;;;;;;;;16.71;12.71;;;;;1.93;73.26;99624.88;6314326;20;1816940;-44
2023/03/16 03:17:36;;;;;;;;;11.50;10.50;;;;;1.84;72.09;99631.25;6307664;20;2791920;-44
2023/03/16 03:20:12;;;;;;;;;11.00;10.00;;;;;1.84;72.31;99636.56;6275961;20;2786896;-45
2023/03/16 03:22:40;;;;;;;;;10.00;10.00;;;;;1.89;72.23;99639.09;6278952;20;2785740;-44
2023/03/16 03:25:08;;;;;;;;;13.50;9.50;;;;;1.95;72.66;99639.81;6278984;20;2770168;-43
2023/03/16 03:27:36;;;;;;;;;13.00;10.50;;;;;1.83;73.64;99642.78;6279098;20;2792036;-46
2023/03/16 03:30:05;;;;;;;;;12.67;9.00;;;;;2.00;72.09;99652.03;6280195;20;3464847;-44
2023/03/16 03:32:33;;;;;;;;;14.00;10.50;;;;;1.91;71.56;99648.72;6282969;20;2789890;-43
2023/03/16 03:35:04;;;;;;;;;13.40;11.00;;;;;1.99;71.88;99659.09;6303162;20;2785723;-44
2023/03/16 03:37:32;;;;;;;;;19.00;14.00;;;;;1.70;72.32;99658.09;6282220;20;2813821;-44
2023/03/16 03:40:03;;;;;;;;;19.50;14.00;;;;;1.82;72.08;99661.31;6283107;20;2802368;-45
2023/03/16 03:42:31;;;;;;;;;13.50;13.50;;;;;1.71;72.22;99661.59;6283959;20;2810721;-44
2023/03/16 03:44:59;;;;;;;;;17.50;17.50;;;;;1.75;72.44;99668.56;6287260;20;2827375;-44
2023/03/16 03:47:27;;;;;;;;;15.00;13.00;;;;;1.63;72.74;99674.16;6282935;20;2807608;-43
2023/03/16 03:49:55;;;;;;;;;13.00;10.50;;;;;1.71;73.51;99674.84;6283567;20;2791917;-44
2023/03/16 03:52:23;;;;;;;;;14.75;11.00;;;;;1.72;73.47;99679.25;6302684;20;1833603;-43
2023/03/16 03:54:51;;;;;;;;;13.50;10.00;;;;;1.55;73.46;99677.00;6314996;20;2770089;-45
2023/03/16 03:57:19;;;;;;;;;13.00;11.00;;;;;1.69;73.65;99680.19;6283047;20;2807679;-46
2023/03/16 03:59:48;;;;;;;;;13.00;13.00;;;;;1.58;73.23;99686.66;6282076;20;2789962;-44
2023/03/16 04:02:16;;;;;;;;;14.00;11.00;;;;;1.62;73.13;99690.97;6280918;20;2795572;-43
2023/03/16 04:04:45;;;;;;;;;10.25;9.75;;;;;1.78;72.85;99688.81;6301900;20;1814868;-43
2023/03/16 04:07:13;;;;;;;;;10.75;9.50;;;;;1.64;73.49;99694.47;6333881;20;1808820;-43
2023/03/16 04:09:42;;;;;;;;;9.75;9.75;;;;;1.64;74.84;99707.69;6334574;20;1823359;-45
2023/03/16 04:12:11;;;;;;;;;14.00;13.00;;;;;1.64;73.62;99702.41;6314790;20;2803456;-45
2023/03/16 04:14:38;;;;;;;;;11.00;7.00;;;;;1.62;73.84;99698.91;6281687;20;2763608;-43
2023/03/16 04:17:06;;;;;;;;;17.50;11.00;;;;;1.55;74.14;99698.19;6282169;20;2804453;-45
2023/03/16 04:19:34;;;;;;;;;22.50;15.00;;;;;1.61;74.14;99705.13;6284443;20;2809715;-44
2023/03/16 04:22:05;;;;;;;;;16.40;14.40;;;;;1.45;74.46;99708.13;6307981;20;2811775;-45
2023/03/16 04:24:35;;;;;;;;;17.80;15.60;;;;;1.42;74.73;99702.03;6305937;20;2814903;-47
2023/03/16 04:27:03;;;;;;;;;22.00;19.50;;;;;1.31;74.80;99710.22;6285866;20;2826324;-43
2023/03/16 04:29:30;;;;;;;;;32.50;26.00;;;;;1.21;75.33;99714.88;6280324;20;2501122;-47
2023/03/16 04:31:58;;;;;;;;;38.00;29.50;;;;;1.12;75.90;99716.84;6280428;20;2500312;-47
2023/03/16 04:34:27;;;;;;;;;29.33;21.67;;;;;1.15;76.29;99719.41;6281211;20;3576302;-43
2023/03/16 04:36:56;;;;;;;;;33.33;22.67;;;;;0.99;78.56;99717.13;6281116;20;3582591;-46
2023/03/16 04:39:24;;;;;;;;;18.33;17.00;;;;;1.18;77.78;99720.22;6283735;20;2818074;-44
2023/03/16 04:41:53;;;;;;;;;17.00;15.67;;;;;1.21;77.29;99732.50;6311449;20;3534677;-43
2023/03/16 04:44:20;;;;;;;;;17.00;12.00;;;;;1.27;76.94;99729.72;6309586;20;2798282;-46
2023/03/16 04:46:49;;;;;;;;;16.25;13.00;;;;;1.29;77.01;99735.81;6299545;20;1830589;-45
2023/03/16 04:49:17;;;;;;;;;12.50;10.00;;;;;1.27;76.78;99735.03;6311139;20;2798194;-44
2023/03/16 04:51:44;;;;;;;;;13.50;11.00;;;;;1.33;76.84;99745.44;6279075;20;2774354;-44
2023/03/16 04:54:12;;;;;;;;;18.00;15.00;;;;;1.43;76.28;99744.34;6280473;20;2827833;-44
2023/03/16 04:56:40;;;;;;;;;18.00;14.00;;;;;1.40;75.91;99741.75;6283458;20;2819131;-47
2023/03/16 04:59:09;;;;;;;;;16.33;14.67;;;;;1.40;75.90;99746.19;6281206;20;2813020;-43
2023/03/16 05:01:38;;;;;;;;;15.67;14.00;;;;;1.45;76.12;99749.56;6312442;20;3548220;-46
2023/03/16 05:04:06;;;;;;;;;22.00;19.00;;;;;1.54;75.48;99750.22;6314076;20;3558658;-45
2023/03/16 05:06:35;;;;;;;;;18.00;17.00;;;;;1.54;75.73;99755.53;6282268;20;3547210;-46
2023/03/16 05:09:06;;;;;;;;;22.33;14.67;;;;;1.56;75.55;99749.34;6314716;20;3554427;-44
2023/03/16 05:11:36;;;;;;;;;18.40;13.00;;;;;1.43;75.16;99754.06;6334077;20;2824252;-45
2023/03/16 05:14:04;;;;;;;;;22.00;16.33;;;;;1.43;75.93;99752.28;6283233;20;2817098;-44
2023/03/16 05:16:33;;;;;;;;;19.00;19.00;;;;;1.56;75.90;99758.16;6315531;20;2827363;-46
2023/03/16 05:19:02;;;;;;;;;20.67;18.00;;;;;1.64;75.32;99765.91;6280141;20;3557707;-46
2023/03/16 05:21:30;;;;;;;;;23.00;19.00;;;;;1.44;75.44;99764.56;6313814;20;2822191;-45
2023/03/16 05:23:59;;;;;;;;;21.00;19.00;;;;;1.67;75.31;99761.41;6277993;20;3560733;-45
2023/03/16 05:26:28;;;;;;;;;21.33;20.00;;;;;1.56;75.62;99768.72;6314829;20;3554419;-45
2023/03/16 05:28:57;;;;;;;;;34.50;23.00;;;;;2.10;73.63;99772.69;6281919;20;2862932;-46
2023/03/16 05:31:26;;;;;;;;;24.00;21.00;;;;;2.44;73.14;99769.16;6275548;20;3559644;-44
2023/03/16 05:33:54;;;;;;;;;20.33;16.67;;;;;2.94;70.58;99781.00;6289082;20;1828453;-44
2023/03/16 05:36:23;;;;;;;;;20.50;18.00;;;;;2.96;69.39;99783.59;6314508;20;2823211;-46
2023/03/16 05:38:52;;;;;;;;;16.00;14.67;;;;;2.68;70.52;99779.06;6282463;20;3552392;-44
2023/03/16 05:41:20;;;;;;;;;20.00;18.00;;;;;2.05;72.36;99774.59;6314077;20;2818132;-45
2023/03/16 05:43:49;;;;;;;;;30.33;19.67;;;;;2.26;72.74;99784.63;6274426;20;3581548;-45
2023/03/16 05:46:18;;;;;;;;;18.67;15.33;;;;;2.46;72.40;99772.66;6282861;20;2798422;-47
2023/03/16 05:48:48;;;;;;;;;21.67;15.67;;;;;2.95;71.39;99789.81;6311388;20;3559655;-49
2023/03/16 05:51:15;;;;;;;;;16.00;16.00;;;;;2.68;70.24;99780.88;6307782;20;2825305;-47
2023/03/16 05:53:45;;;;;;;;;17.40;15.20;;;;;2.84;70.62;99784.81;6303864;20;2819150;-47
2023/03/16 05:56:13;;;;;;;;;30.00;27.50;;;;;2.95;70.21;99781.84;6278791;20;2837879;-47
2023/03/16 05:58:41;;;;;;;;;20.00;18.00;;;;;4.07;66.66;99792.53;6280001;20;2817000;-44
2023/03/16 06:01:12;;;;;;;;;17.40;14.00;;;;;4.21;66.60;99793.84;6301001;20;2799299;-47
2023/03/16 06:03:40;;;;;;;;;19.00;18.00;;;;;6.36;60.12;99798.06;6281042;20;3549297;-46
2023/03/16 06:06:09;;;;;;;;;16.67;14.67;;;;;6.84;56.77;99803.16;6310802;20;3546325;-46
2023/03/16 06:08:37;;;;;;;;;27.00;22.00;;;;;8.70;51.02;99816.50;6310523;20;2500351;-46
2023/03/16 06:11:07;;;;;;;;;72.33;52.67;;;;;9.67;48.64;99817.56;6278092;20;3654446;-49
2023/03/16 06:13:38;;;;;;;;;47.00;33.00;;;;;10.10;45.61;99820.47;6309127;20;3630463;-50
2023/03/16 06:16:07;;;;;;;;;15.00;12.50;;;;;10.55;45.06;99837.56;6310579;20;2789889;-47
2023/03/16 06:18:36;;;;;;;;;16.67;15.00;;;;;12.32;40.53;99835.47;6276985;20;3551291;-50
2023/03/16 06:21:05;;;;;;;;;17.33;15.00;;;;;12.55;39.27;99844.69;6305917;20;3550347;-45
2023/03/16 06:23:34;;;;;;;;;14.33;13.67;;;;;12.89;37.74;99840.56;6277506;20;3528447;-49
2023/03/16 06:26:04;;;;;;;;;16.33;14.67;;;;;13.66;37.13;99847.84;6310526;20;3523177;-46
2023/03/16 06:28:31;;;;;;;;;20.00;17.50;;;;;12.94;38.09;99854.59;6310678;20;2494566;-49
2023/03/16 06:30:59;;;;;;;;;18.50;15.50;;;;;15.04;34.74;99859.22;6277800;20;2500298;-46
2023/03/16 06:33:28;;;;;;;;;22.50;21.00;;;;;14.23;36.35;99863.47;6280709;20;2838890;-48
2023/03/16 06:35:58;;;;;;;;;44.67;31.33;;;;;13.73;37.20;99857.22;6280989;20;3619002;-46
2023/03/16 06:38:28;;;;;;;;;54.67;42.67;;;;;14.00;35.06;99873.25;6312182;20;2861811;-50
2023/03/16 06:40:56;;;;;;;;;32.67;30.00;;;;;14.09;35.18;99872.59;6312823;20;3583659;-46
2023/03/16 06:43:25;;;;;;;;;31.00;29.67;;;;;15.41;34.00;99880.69;6276566;20;3613801;-49
2023/03/16 06:45:54;;;;;;;;;18.33;16.67;;;;;14.01;35.38;99883.09;6278523;20;3562761;-47
2023/03/16 06:48:23;;;;;;;;;30.67;28.00;;;;;11.44;39.12;99880.53;6279671;20;3606504;-48
2023/03/16 06:50:51;;;;;;;;;22.00;20.00;;;;;10.89;39.05;99881.22;6306421;20;2491947;-48
2023/03/16 06:53:20;;;;;;;;;16.00;14.33;;;;;13.51;37.08;99890.28;6275867;20;3539876;-49
2023/03/16 06:55:50;;;;;;;;;23.00;23.00;;;;;13.69;36.44;99894.38;6309732;20;2861878;-47
2023/03/16 06:58:18;;;;;;;;;16.50;16.50;;;;;14.64;34.20;99906.34;6280889;20;2829447;-48
2023/03/16 07:00:46;;;;;;;;;17.00;13.50;;;;;14.14;34.51;99905.53;6280943;20;2811829;-46
2023/03/16 07:03:16;;;;;;;;;9.80;9.80;;;;;14.14;34.89;99905.53;6302100;20;2766336;-45
2023/03/16 07:05:45;;;;;;;;;11.00;9.00;;;;;13.90;34.21;99904.59;6274787;20;2777493;-46
2023/03/16 07:08:14;;;;;;;;;12.33;12.33;;;;;14.12;33.38;99912.88;6312869;20;3544031;-45
2023/03/16 07:10:42;;;;;;;;;12.00;11.00;;;;;16.15;31.21;99919.88;6314020;20;3510761;-45
2023/03/16 07:13:13;;;;;;;;;12.14;10.00;;;;;12.41;34.92;99922.88;6360667;20;1798223;-48
2023/03/16 07:15:43;;;;;;;;;13.00;12.00;;;;;13.80;33.59;99926.00;6313023;20;2780543;-45
2023/03/16 07:18:11;;;;;;;;;8.50;8.50;;;;;14.02;32.55;99928.00;6319640;20;2745106;-46
2023/03/16 07:20:38;;;;;;;;;17.00;12.00;;;;;12.86;36.23;99924.31;6285920;20;2804450;-46
2023/03/16 07:23:06;;;;;;;;;14.50;12.00;;;;;8.91;41.75;99914.47;6282097;20;2819019;-46
2023/03/16 07:25:35;;;;;;;;;7.25;4.00;;;;;7.33;47.13;99913.97;6307100;20;1823350;-45
2023/03/16 07:28:03;;;;;;;;;17.00;13.00;;;;;6.83;48.12;99909.03;6319813;20;2798186;-45
2023/03/16 07:30:33;;;;;;;;;15.00;11.60;;;;;6.95;48.23;99918.31;6311020;20;2796514;-44
2023/03/16 07:33:00;;;;;;;;;14.00;11.00;;;;;6.96;49.18;99925.38;6284017;20;2791035;-43
2023/03/16 07:35:29;;;;;;;;;16.00;14.50;;;;;7.61;47.98;99939.41;6284929;20;2814830;-45
2023/03/16 07:37:57;;;;;;;;;14.50;14.00;;;;;7.84;49.59;99938.38;6288581;20;2819034;-44
2023/03/16 07:40:26;;;;;;;;;17.33;16.33;;;;;7.13;49.89;99933.53;6284397;20;3542996;-50
2023/03/16 07:42:54;;;;;;;;;17.00;13.50;;;;;7.57;50.32;99930.69;6289009;20;2802351;-44
2023/03/16 07:45:23;;;;;;;;;16.00;14.67;;;;;7.93;49.69;99921.94;6287113;20;3550299;-44
2023/03/16 07:47:51;;;;;;;;;18.00;13.67;;;;;7.44;49.13;99926.84;6316147;20;3545101;-43
2023/03/16 07:50:22;;;;;;;;;9.33;9.33;;;;;7.20;50.03;99929.66;6358899;20;1812910;-46
2023/03/16 07:52:50;;;;;;;;;15.33;15.00;;;;;7.15;51.42;99930.78;6285779;20;2811747;-45
2023/03/16 07:55:18;;;;;;;;;17.00;14.00;;;;;6.88;50.52;99941.72;6315114;20;2801312;-45
2023/03/16 07:57:48;;;;;;;;;14.40;11.20;;;;;7.48;50.15;99940.00;6308773;20;2785700;-44
2023/03/16 08:00:22;;;;;;;;;19.67;16.67;;;;;7.36;51.48;99939.66;6285795;20;3545047;-44
2023/03/16 08:02:51;;;;;;;;;15.00;13.00;;;;;7.67;49.92;99947.19;6287369;20;2789895;-46
2023/03/16 08:05:22;;;;;;;;;7.50;4.25;;;;;7.42;50.43;99945.59;6305344;20;1815937;-43
2023/03/16 08:07:54;;;;;;;;;9.50;9.50;;;;;7.60;50.38;99943.03;6315200;20;2774267;-43
2023/03/16 08:10:24;;;;;;;;;13.67;12.67;;;;;7.17;50.13;99944.97;6285604;20;3544081;-50
2023/03/16 08:12:53;;;;;;;;;15.67;15.00;;;;;7.64;50.09;99945.50;6318128;20;3546313;-44
2023/03/16 08:15:21;;;;;;;;;16.00;15.00;;;;;7.53;50.13;99941.56;6286586;20;2806605;-45
2023/03/16 08:17:51;;;;;;;;;13.33;11.33;;;;;7.73;49.04;99948.72;6286359;20;2789891;-45
2023/03/16 08:20:20;;;;;;;;;15.33;14.00;;;;;8.21;49.63;99960.72;6316593;20;2807068;-47
2023/03/16 08:22:48;;;;;;;;;7.00;7.00;;;;;7.93;48.32;99961.16;6336642;20;1809778;-44
2023/03/16 08:25:18;;;;;;;;;15.33;14.00;;;;;8.12;49.03;99967.38;6313401;20;3552341;-45
2023/03/16 08:27:47;;;;;;;;;16.00;15.00;;;;;8.33;49.13;99961.00;6317972;20;3540894;-48
2023/03/16 08:30:16;;;;;;;;;16.00;12.00;;;;;7.66;47.76;99965.03;6283715;20;3551301;-45
2023/03/16 08:32:45;;;;;;;;;12.67;12.00;;;;;7.96;48.19;99967.22;6316926;20;3513817;-49
2023/03/16 08:35:17;;;;;;;;;10.50;8.00;;;;;7.94;48.15;99971.78;6313004;20;2764953;-47
2023/03/16 08:37:46;;;;;;;;;16.50;14.00;;;;;7.91;47.14;99964.75;6286590;20;2808616;-46
2023/03/16 08:40:15;;;;;;;;;11.00;10.00;;;;;8.01;47.35;99967.88;6284248;20;2785689;-48
2023/03/16 08:42:44;;;;;;;;;16.67;10.67;;;;;8.09;49.79;99963.03;6284695;20;2803465;-44
2023/03/16 08:45:13;;;;;;;;;19.50;16.00;;;;;8.49;48.03;99971.88;6317938;20;2822277;-45
2023/03/16 08:47:43;;;;;;;;;16.00;12.00;;;;;8.22;46.82;99962.47;6282593;20;3543094;-44
2023/03/16 08:50:12;;;;;;;;;14.67;13.67;;;;;8.78;46.08;99977.59;6313205;20;3549272;-43
2023/03/16 08:52:41;;;;;;;;;11.00;11.00;;;;;8.91;46.42;99976.06;6315579;20;2784649;-44
2023/03/16 08:55:10;;;;;;;;;11.00;11.00;;;;;8.35;46.63;99974.31;6315599;20;2784660;-44
2023/03/16 08:57:38;;;;;;;;;4.50;3.00;;;;;8.63;45.35;99981.03;6304785;20;1816073;-43
2023/03/16 09:00:12;;;;;;;;;19.33;12.33;;;;;8.35;45.62;99974.31;6313045;20;3551283;-43
2023/03/16 09:02:42;;;;;;;;;13.60;9.80;;;;;7.94;45.66;99981.59;6341898;20;2785815;-44
2023/03/16 09:05:14;;;;;;;;;5.00;3.75;;;;;8.88;45.28;99981.56;6304416;20;1808690;-46
2023/03/16 09:07:42;;;;;;;;;10.00;10.00;;;;;8.76;44.57;99982.16;6311821;20;2791064;-47
2023/03/16 09:10:14;;;;;;;;;4.25;4.25;;;;;8.97;43.94;99982.91;6300683;20;1821221;-44
2023/03/16 09:12:43;;;;;;;;;8.00;4.00;;;;;8.27;43.07;99977.34;6319622;20;2750344;-44
2023/03/16 09:15:13;;;;;;;;;7.80;5.20;;;;;8.40;43.76;99980.34;6307854;20;2756575;-46
2023/03/16 09:17:43;;;;;;;;;11.00;10.00;;;;;8.75;44.31;99983.13;6314972;20;2797294;-46
2023/03/16 09:20:16;;;;;;;;;14.00;11.00;;;;;8.83;44.28;99996.13;6284157;20;2804510;-44
2023/03/16 09:22:57;;;;;;;;;8.00;8.00;;;;;8.72;42.44;99988.63;6293178;20;2744057;-45
2023/03/16 09:25:28;;;;;;;;;7.17;4.83;;;;;8.77;43.32;99992.81;6359682;20;1801407;-43
2023/03/16 09:27:59;;;;;;;;;13.50;9.00;;;;;8.69;43.33;99994.09;6326901;20;1877816;-44
2023/03/16 09:30:27;;;;;;;;;16.00;10.50;;;;;8.86;42.22;100001.31;6313320;20;2796112;-43
2023/03/16 09:32:55;;;;;;;;;10.00;3.00;;;;;8.67;43.39;100006.72;6283595;20;2770065;-44
2023/03/16 09:35:24;;;;;;;;;12.00;12.00;;;;;8.81;44.23;100004.22;6285093;20;2789871;-44
2023/03/16 09:37:51;;;;;;;;;12.50;9.50;;;;;8.88;43.29;100005.66;6280123;20;2783701;-44
2023/03/16 09:40:34;;;;;;;;;11.50;9.50;;;;;9.10;44.33;100009.94;6284871;20;2781685;-48
2023/03/16 09:43:37;;;;;;;;;16.00;12.00;;;;;9.16;44.88;100012.31;6280725;20;3525403;-44
2023/03/16 09:46:37;;;;;;;;;16.00;12.00;;;;;8.74;45.20;100008.13;6311698;20;2498215;-44
2023/03/16 09:49:11;;;;;;;;;12.33;11.33;;;;;8.94;44.68;100001.81;6282042;20;3517969;-43
2023/03/16 09:52:32;;;;;;;;;12.67;11.67;;;;;9.12;44.26;100013.41;6310011;20;2794063;-43
2023/03/16 09:55:27;;;;;;;;;11.00;10.00;;;;;8.94;45.07;100015.19;6314228;20;2794061;-46
2023/03/16 09:57:58;;;;;;;;;16.50;16.50;;;;;10.04;44.29;100014.84;6281103;20;2498223;-45
2023/03/16 10:00:40;;;;;;;;;12.40;10.00;;;;;9.13;45.97;100015.16;6304606;20;2798235;-44
2023/03/16 10:03:27;;;;;;;;;12.50;10.00;;;;;9.85;43.17;100016.78;6286676;20;2785703;-46
2023/03/16 10:06:06;;;;;;;;;10.50;10.50;;;;;8.76;43.02;100022.31;6285433;20;2775281;-44
2023/03/16 10:09:32;;;;;;;;;22.00;20.00;;;;;9.48;43.26;100016.03;6277321;20;2842039;-45
2023/03/16 10:12:07;;;;;;;;;67.00;53.00;;;;;9.45;43.35;100016.19;6278386;20;2864913;-44
2023/03/16 10:15:03;;;;;;;;;11.00;9.00;;;;;9.82;42.82;100022.28;6312722;20;2769167;-45
2023/03/16 10:18:06;;;;;;;;;9.50;9.50;;;;;9.76;41.67;100019.94;6280524;20;2764942;-44
2023/03/16 10:20:35;;;;;;;;;10.00;10.00;;;;;9.56;39.98;100016.50;6281237;20;2782605;-46
2023/03/16 10:23:23;;;;;;;;;9.80;9.00;;;;;9.54;41.71;100020.22;6308407;20;2776327;-46
2023/03/16 10:25:55;;;;;;;;;15.20;13.00;;;;;9.77;40.03;100017.19;6304371;20;2827402;-43
2023/03/16 10:28:27;;;;;;;;;9.00;9.00;;;;;9.45;40.81;100010.81;6280658;20;2760747;-45
2023/03/16 10:31:01;;;;;;;;;7.50;6.00;;;;;9.10;36.58;100031.38;6283303;20;2736137;-46
2023/03/16 10:33:35;;;;;;;;;5.25;5.25;;;;;8.67;36.53;100028.13;6301974;20;1819217;-47
2023/03/16 10:36:15;;;;;;;;;6.50;6.50;;;;;9.72;38.15;100024.63;6313388;20;2739895;-45
2023/03/16 10:38:54;;;;;;;;;7.00;6.50;;;;;9.64;36.78;100038.41;6283682;20;2745190;-44
2023/03/16 10:41:36;;;;;;;;;4.00;2.50;;;;;9.55;36.26;100025.47;6279671;20;2747191;-44
2023/03/16 10:44:27;;;;;;;;;12.75;12.75;;;;;9.49;37.16;100024.94;6298452;20;1820057;-45
2023/03/16 10:47:06;;;;;;;;;7.00;5.00;;;;;10.04;37.47;100035.44;6313636;20;2745076;-47
2023/03/16 10:49:47;;;;;;;;;4.00;4.00;;;;;9.49;36.63;100022.25;6282785;20;2748198;-45
2023/03/16 10:52:41;;;;;;;;;12.00;11.00;;;;;10.31;35.93;100017.84;6304200;20;2798281;-43
2023/03/16 10:55:29;;;;;;;;;8.00;7.00;;;;;9.65;34.90;100021.38;6284946;20;2741909;-46
2023/03/16 10:57:58;;;;;;;;;8.00;6.50;;;;;9.81;36.38;100026.78;6313514;20;2746118;-44
2023/03/16 11:00:42;;;;;;;;;5.50;5.00;;;;;10.26;36.52;100016.34;6298737;20;1816087;-44
2023/03/16 11:03:38;;;;;;;;;6.50;6.00;;;;;9.66;36.37;100011.50;6315936;20;2741933;-44
2023/03/16 11:06:21;;;;;;;;;3.50;3.50;;;;;10.00;36.02;100018.63;6281745;20;2746130;-46
2023/03/16 11:08:49;;;;;;;;;3.00;3.00;;;;;9.64;35.12;100013.44;6282107;20;2738804;-43
2023/03/16 11:11:33;;;;;;;;;6.00;4.00;;;;;10.23;36.69;100019.22;6312002;20;2756575;-43
2023/03/16 11:14:11;;;;;;;;;7.00;6.00;;;;;10.60;37.06;100011.81;6281526;20;2735809;-46
2023/03/16 11:17:27;;;;;;;;;1.50;1.50;;;;;10.42;36.22;100016.41;6312200;20;2740937;-44
2023/03/16 11:20:11;;;;;;;;;6.00;6.00;;;;;10.38;36.79;100017.53;6281966;20;2738824;-47
2023/03/16 11:22:47;;;;;;;;;6.40;4.60;;;;;10.28;34.34;100017.16;6306367;20;2749235;-47
2023/03/16 11:25:46;;;;;;;;;6.00;6.00;;;;;10.56;34.87;100016.50;6313158;20;2734647;-44
2023/03/16 11:28:37;;;;;;;;;3.00;3.00;;;;;10.21;33.73;100011.22;6284464;20;2738868;-48
2023/03/16 11:31:49;;;;;;;;;13.50;13.00;;;;;10.51;34.73;100014.06;6310837;20;2805468;-47
2023/03/16 11:34:29;;;;;;;;;5.00;4.00;;;;;10.40;34.36;100012.94;6281760;20;2483742;-45